Time;durP1;ratioP1;P1;durP2;ratioP2;P2;SDS_P1;SDS_P2;PMS_P1;PMS_P2;Temp;Humidity;BMP_temperature;BMP_pressure;BME280_temperature;BME280_humidity;BME280_pressure;Samples;Min_cycle;Max_cycle;Signal;HPM_P1;HPM_P2
2023/11/30 00:03:53;;;;;;;3.13;2.17;;;;;;;;;;10338275;28;20014;-64
2023/11/30 00:08:53;;;;;;;3.22;2.30;;;;;;;;;;10338422;28;20470;-61
2023/11/30 00:13:54;;;;;;;9.15;2.47;;;;;;;;;;10350933;28;20049;-63
2023/11/30 00:18:55;;;;;;;3.22;2.60;;;;;;;;;;10337193;28;20586;-63
2023/11/30 00:23:56;;;;;;;3.15;2.58;;;;;;;;;;10335022;28;20081;-62
2023/11/30 00:28:57;;;;;;;5.40;2.50;;;;;;;;;;10335327;28;20466;-62
2023/11/30 00:33:58;;;;;;;5.82;2.30;;;;;;;;;;10337136;28;20038;-62
2023/11/30 00:38:58;;;;;;;5.65;2.47;;;;;;;;;;10360750;28;20025;-62
2023/11/30 00:43:59;;;;;;;5.05;2.50;;;;;;;;;;10367761;28;20366;-64
2023/11/30 00:49:00;;;;;;;2.92;2.20;;;;;;;;;;10355515;28;20381;-64
2023/11/30 00:54:01;;;;;;;2.40;2.05;;;;;;;;;;10355244;28;20132;-63
2023/11/30 00:59:02;;;;;;;3.78;2.20;;;;;;;;;;10367542;28;20049;-63
2023/11/30 01:04:02;;;;;;;5.47;2.15;;;;;;;;;;10366569;28;20061;-63
2023/11/30 01:09:03;;;;;;;4.22;2.72;;;;;;;;;;10354734;28;20033;-63
2023/11/30 01:14:03;;;;;;;2.40;2.20;;;;;;;;;;10348791;28;20034;-63
2023/11/30 01:19:04;;;;;;;3.60;2.00;;;;;;;;;;10345161;28;20061;-63
2023/11/30 01:24:05;;;;;;;3.63;2.25;;;;;;;;;;10363853;28;20029;-64
2023/11/30 01:29:05;;;;;;;4.25;2.08;;;;;;;;;;10366683;28;20026;-64
2023/11/30 01:34:06;;;;;;;4.18;2.38;;;;;;;;;;10366130;28;20041;-64
2023/11/30 01:39:27;;;;;;;3.03;2.38;;;;;;;;;;10365941;28;20037;-64
2023/11/30 01:44:27;;;;;;;2.22;2.00;;;;;;;;;;10318741;28;20049;-63
2023/11/30 01:49:28;;;;;;;3.17;2.22;;;;;;;;;;10302105;28;20050;-63
2023/11/30 01:54:29;;;;;;;3.70;2.10;;;;;;;;;;10297610;28;20449;-63
2023/11/30 01:59:30;;;;;;;4.65;2.00;;;;;;;;;;10316765;28;20050;-64
2023/11/30 02:04:34;;;;;;;2.42;2.15;;;;;;;;;;10311054;28;20522;-63
2023/11/30 02:09:34;;;;;;;2.65;1.90;;;;;;;;;;10316770;28;20073;-63
2023/11/30 02:14:35;;;;;;;2.70;2.05;;;;;;;;;;10306308;28;20055;-63
2023/11/30 02:19:36;;;;;;;3.25;2.13;;;;;;;;;;10329141;28;20081;-64
2023/11/30 02:24:36;;;;;;;4.55;2.30;;;;;;;;;;10364516;28;20492;-64
2023/11/30 02:29:38;;;;;;;4.15;2.20;;;;;;;;;;10364529;28;20037;-64
2023/11/30 02:34:38;;;;;;;3.90;2.08;;;;;;;;;;10365198;28;20191;-64
2023/11/30 02:39:39;;;;;;;3.28;2.13;;;;;;;;;;10364779;28;20034;-64
2023/11/30 02:44:39;;;;;;;3.72;2.08;;;;;;;;;;10364479;28;20034;-64
2023/11/30 02:49:40;;;;;;;1.55;1.45;;;;;;;;;;10364608;28;20030;-64
2023/11/30 02:54:40;;;;;;;2.08;1.70;;;;;;;;;;10363336;28;20069;-63
2023/11/30 02:59:41;;;;;;;3.22;2.30;;;;;;;;;;10368588;28;20038;-63
2023/11/30 03:04:41;;;;;;;2.03;1.77;;;;;;;;;;10372732;28;20030;-63
2023/11/30 03:09:42;;;;;;;4.90;2.00;;;;;;;;;;10370964;28;20084;-63
2023/11/30 03:14:46;;;;;;;10.23;2.55;;;;;;;;;;10371770;28;20038;-63
2023/11/30 03:19:47;;;;;;;2.20;1.77;;;;;;;;;;10371458;28;20029;-62
2023/11/30 03:24:48;;;;;;;2.83;1.95;;;;;;;;;;10369690;28;20105;-62
2023/11/30 03:29:49;;;;;;;3.17;1.80;;;;;;;;;;10370680;28;20492;-62
2023/11/30 03:34:49;;;;;;;1.88;1.70;;;;;;;;;;10370819;28;20037;-62
2023/11/30 03:39:50;;;;;;;2.08;1.90;;;;;;;;;;10370326;28;20045;-62
2023/11/30 03:44:50;;;;;;;2.42;1.83;;;;;;;;;;10370816;28;20033;-62
2023/11/30 03:49:51;;;;;;;2.10;1.88;;;;;;;;;;10370409;28;20539;-62
2023/11/30 03:54:51;;;;;;;1.95;1.33;;;;;;;;;;10370550;28;20061;-63
2023/11/30 03:59:52;;;;;;;2.95;2.10;;;;;;;;;;10370196;28;20221;-62
2023/11/30 04:04:53;;;;;;;2.75;2.10;;;;;;;;;;10369992;28;20037;-63
2023/11/30 04:09:53;;;;;;;1.92;1.75;;;;;;;;;;10368153;28;20088;-62
2023/11/30 04:14:54;;;;;;;1.65;1.55;;;;;;;;;;10369412;28;20049;-62
2023/11/30 04:19:54;;;;;;;3.05;1.80;;;;;;;;;;10368724;28;20018;-63
2023/11/30 04:24:55;;;;;;;2.65;1.90;;;;;;;;;;10368758;28;20181;-63
2023/11/30 04:29:55;;;;;;;4.55;2.00;;;;;;;;;;10368259;28;20045;-63
2023/11/30 04:34:56;;;;;;;2.10;1.70;;;;;;;;;;10368408;28;20269;-63
2023/11/30 04:39:57;;;;;;;2.20;1.80;;;;;;;;;;10368448;28;20037;-63
2023/11/30 04:44:58;;;;;;;2.42;1.73;;;;;;;;;;10367455;28;20018;-64
2023/11/30 04:49:58;;;;;;;2.63;1.95;;;;;;;;;;10367707;28;20037;-64
2023/11/30 04:54:59;;;;;;;1.60;1.50;;;;;;;;;;10363443;28;20050;-62
2023/11/30 05:00:00;;;;;;;1.63;1.52;;;;;;;;;;10364919;28;20424;-62
2023/11/30 05:05:00;;;;;;;2.65;1.88;;;;;;;;;;10366271;28;20038;-62
2023/11/30 05:10:01;;;;;;;1.40;1.30;;;;;;;;;;10367704;28;20030;-62
2023/11/30 05:15:02;;;;;;;2.10;1.73;;;;;;;;;;10366969;28;20473;-62
2023/11/30 05:20:04;;;;;;;2.22;1.60;;;;;;;;;;10366648;28;20543;-63
2023/11/30 05:25:06;;;;;;;2.25;1.70;;;;;;;;;;10366903;28;20022;-62
2023/11/30 05:30:08;;;;;;;2.30;1.70;;;;;;;;;;10365043;28;20037;-65
2023/11/30 05:35:09;;;;;;;2.05;1.80;;;;;;;;;;10365730;28;20025;-63
2023/11/30 05:40:11;;;;;;;2.28;1.67;;;;;;;;;;10365847;28;20462;-65
2023/11/30 05:45:12;;;;;;;1.98;1.65;;;;;;;;;;10375980;28;20025;-66
2023/11/30 05:50:12;;;;;;;1.50;1.40;;;;;;;;;;10365434;28;20076;-64
2023/11/30 05:55:14;;;;;;;1.63;1.45;;;;;;;;;;10365246;28;20045;-64
2023/11/30 06:00:16;;;;;;;1.98;1.70;;;;;;;;;;10365541;28;20320;-64
2023/11/30 06:05:17;;;;;;;1.63;1.52;;;;;;;;;;10365123;28;20030;-63
2023/11/30 06:10:18;;;;;;;2.20;1.52;;;;;;;;;;10365181;28;20040;-64
2023/11/30 06:15:19;;;;;;;1.23;1.20;;;;;;;;;;10372122;28;20025;-64
2023/11/30 06:20:19;;;;;;;2.35;1.50;;;;;;;;;;10374653;28;20068;-64
2023/11/30 06:25:20;;;;;;;2.75;1.52;;;;;;;;;;10364000;28;20025;-63
2023/11/30 06:30:20;;;;;;;2.40;1.58;;;;;;;;;;10365074;28;20048;-63
2023/11/30 06:35:21;;;;;;;1.60;1.40;;;;;;;;;;10369526;28;20022;-63
2023/11/30 06:40:22;;;;;;;1.55;1.40;;;;;;;;;;10371181;28;20037;-61
2023/11/30 06:45:22;;;;;;;2.10;1.50;;;;;;;;;;10371680;28;20030;-63
2023/11/30 06:50:23;;;;;;;10.25;1.65;;;;;;;;;;10370956;28;20030;-64
2023/11/30 06:55:24;;;;;;;2.97;1.88;;;;;;;;;;10384273;28;20397;-64
2023/11/30 07:00:26;;;;;;;15.40;2.30;;;;;;;;;;10379883;28;20037;-64
2023/11/30 07:05:27;;;;;;;10.45;2.35;;;;;;;;;;10372087;28;20491;-64
2023/11/30 07:10:28;;;;;;;5.20;2.25;;;;;;;;;;10378100;28;20038;-69
2023/11/30 07:15:29;;;;;;;8.95;2.70;;;;;;;;;;10375681;28;20118;-63
2023/11/30 07:20:30;;;;;;;14.35;2.53;;;;;;;;;;10367625;28;20030;-63
2023/11/30 07:25:31;;;;;;;18.90;2.70;;;;;;;;;;10371185;28;20025;-63
2023/11/30 07:30:31;;;;;;;7.88;2.20;;;;;;;;;;10370940;28;20025;-63
2023/11/30 07:35:32;;;;;;;3.45;2.30;;;;;;;;;;10371524;28;20029;-66
2023/11/30 07:40:32;;;;;;;4.95;2.20;;;;;;;;;;10370538;28;20026;-63
2023/11/30 07:45:33;;;;;;;7.40;2.10;;;;;;;;;;10369968;28;20034;-63
2023/11/30 07:50:34;;;;;;;6.90;2.45;;;;;;;;;;10370119;28;20037;-63
2023/11/30 07:55:36;;;;;;;10.07;2.92;;;;;;;;;;10369911;28;20061;-63
2023/11/30 08:00:36;;;;;;;4.97;2.47;;;;;;;;;;10369587;28;20099;-63
2023/11/30 08:05:37;;;;;;;3.10;2.20;;;;;;;;;;10369964;28;20030;-63
2023/11/30 08:10:37;;;;;;;6.28;2.30;;;;;;;;;;10368993;28;20037;-63
2023/11/30 08:15:38;;;;;;;7.28;2.50;;;;;;;;;;10369285;28;20473;-63
2023/11/30 08:20:38;;;;;;;7.95;2.60;;;;;;;;;;10362003;28;22449;-63
2023/11/30 08:25:39;;;;;;;4.30;2.35;;;;;;;;;;10351576;28;20060;-64
2023/11/30 08:30:41;;;;;;;12.43;2.60;;;;;;;;;;10344820;28;20389;-63
2023/11/30 08:35:41;;;;;;;7.00;4.82;;;;;;;;;;10352638;28;20045;-66
2023/11/30 08:40:42;;;;;;;3.90;2.35;;;;;;;;;;10363544;28;20049;-63
2023/11/30 08:45:42;;;;;;;9.00;2.30;;;;;;;;;;10362739;28;20030;-63
2023/11/30 08:50:43;;;;;;;3.30;2.00;;;;;;;;;;10368129;28;20484;-63
2023/11/30 08:55:45;;;;;;;5.65;2.50;;;;;;;;;;10361010;28;20065;-62
2023/11/30 09:00:45;;;;;;;8.80;2.75;;;;;;;;;;10353664;28;20055;-63
2023/11/30 09:05:46;;;;;;;12.90;2.63;;;;;;;;;;10339393;28;20037;-62
2023/11/30 09:10:47;;;;;;;7.80;2.42;;;;;;;;;;10349728;28;20026;-63
2023/11/30 09:15:47;;;;;;;13.55;2.85;;;;;;;;;;10354786;28;20035;-62
2023/11/30 09:20:48;;;;;;;11.48;3.03;;;;;;;;;;10359630;28;20084;-63
2023/11/30 09:25:49;;;;;;;10.15;2.50;;;;;;;;;;10365169;28;20034;-63
2023/11/30 09:30:49;;;;;;;8.32;3.22;;;;;;;;;;10352032;28;20513;-62
2023/11/30 09:35:50;;;;;;;7.18;3.08;;;;;;;;;;10364129;28;20052;-63
2023/11/30 09:40:54;;;;;;;8.10;3.33;;;;;;;;;;10364010;28;20404;-62
2023/11/30 09:45:55;;;;;;;20.27;3.17;;;;;;;;;;10342638;28;20038;-62
2023/11/30 09:50:56;;;;;;;11.43;3.67;;;;;;;;;;10344892;28;20034;-62
2023/11/30 09:55:56;;;;;;;14.15;2.97;;;;;;;;;;10344110;28;20406;-62
2023/11/30 10:00:57;;;;;;;8.52;3.13;;;;;;;;;;10361057;28;20261;-62
2023/11/30 10:05:58;;;;;;;9.90;3.15;;;;;;;;;;10352006;28;20037;-63
2023/11/30 10:10:58;;;;;;;9.98;4.05;;;;;;;;;;10341566;28;20054;-62
2023/11/30 10:15:59;;;;;;;9.57;3.30;;;;;;;;;;10349706;28;20064;-63
2023/11/30 10:21:01;;;;;;;14.05;3.88;;;;;;;;;;10346138;28;20084;-62
2023/11/30 10:26:02;;;;;;;10.35;3.47;;;;;;;;;;10356986;28;20478;-62
2023/11/30 10:31:04;;;;;;;7.90;2.92;;;;;;;;;;10361110;28;20022;-62
2023/11/30 10:36:06;;;;;;;10.35;3.42;;;;;;;;;;10357416;28;20056;-62
2023/11/30 10:41:16;;;;;;;12.40;3.10;;;;;;;;;;10346494;28;20497;-63
2023/11/30 10:46:18;;;;;;;8.65;3.30;;;;;;;;;;10349825;28;20473;-63
2023/11/30 10:51:19;;;;;;;7.38;2.90;;;;;;;;;;10353063;28;20027;-63
2023/11/30 10:56:22;;;;;;;8.95;3.40;;;;;;;;;;10360318;28;20054;-62
2023/11/30 11:01:22;;;;;;;8.55;3.10;;;;;;;;;;10355379;28;20689;-66
2023/11/30 11:06:26;;;;;;;9.35;3.08;;;;;;;;;;10361302;28;20257;-62
2023/11/30 11:11:29;;;;;;;10.77;3.03;;;;;;;;;;10361997;28;20505;-62
2023/11/30 11:16:41;;;;;;;7.20;2.75;;;;;;;;;;10361994;28;20481;-63
2023/11/30 11:21:42;;;;;;;5.32;2.60;;;;;;;;;;10364368;28;20030;-62
2023/11/30 11:26:48;;;;;;;7.20;3.10;;;;;;;;;;10369922;28;20525;-63
2023/11/30 11:31:49;;;;;;;10.27;3.22;;;;;;;;;;10365037;28;20049;-62
2023/11/30 11:36:50;;;;;;;5.57;3.28;;;;;;;;;;10359406;28;20105;-62
2023/11/30 11:41:51;;;;;;;6.63;3.50;;;;;;;;;;10363306;28;20469;-63
2023/11/30 11:46:51;;;;;;;7.50;3.13;;;;;;;;;;10356510;28;20042;-66
2023/11/30 11:51:54;;;;;;;7.75;2.95;;;;;;;;;;10350246;23;20058;-53
2023/11/30 11:56:55;;;;;;;8.95;3.40;;;;;;;;;;10339712;28;20433;-52
2023/11/30 12:01:58;;;;;;;4.55;2.47;;;;;;;;;;10321600;28;20031;-53
2023/11/30 12:07:10;;;;;;;4.32;2.83;;;;;;;;;;10327373;28;20022;-52
2023/11/30 12:12:12;;;;;;;6.30;2.60;;;;;;;;;;10325413;28;20030;-51
2023/11/30 12:17:12;;;;;;;5.82;2.75;;;;;;;;;;10329889;28;20470;-52
2023/11/30 12:22:13;;;;;;;4.60;2.83;;;;;;;;;;10321343;28;20026;-57
2023/11/30 12:27:14;;;;;;;8.13;2.78;;;;;;;;;;10316456;28;20038;-54
2023/11/30 12:32:15;;;;;;;3.25;2.50;;;;;;;;;;10317710;28;20022;-57
2023/11/30 12:37:15;;;;;;;5.70;2.75;;;;;;;;;;10315514;28;20027;-52
2023/11/30 12:42:16;;;;;;;5.13;2.72;;;;;;;;;;10316244;28;20081;-53
2023/11/30 12:47:16;;;;;;;4.18;2.67;;;;;;;;;;10320206;28;20098;-56
2023/11/30 12:52:17;;;;;;;3.63;2.60;;;;;;;;;;10321366;28;20042;-50
2023/11/30 12:57:18;;;;;;;4.15;2.33;;;;;;;;;;10321671;28;21999;-52
2023/11/30 13:02:18;;;;;;;8.77;2.55;;;;;;;;;;10319151;28;20027;-53
2023/11/30 13:07:19;;;;;;;4.53;2.80;;;;;;;;;;10316486;28;20167;-55
2023/11/30 13:12:20;;;;;;;5.03;2.40;;;;;;;;;;10316958;28;20040;-51
2023/11/30 13:17:20;;;;;;;5.10;2.30;;;;;;;;;;10318025;28;20030;-60
2023/11/30 13:22:21;;;;;;;3.22;2.08;;;;;;;;;;10316691;28;20023;-53
2023/11/30 13:27:22;;;;;;;6.25;3.00;;;;;;;;;;10320300;28;20035;-53
2023/11/30 13:32:22;;;;;;;5.78;2.50;;;;;;;;;;10318677;28;20026;-54
2023/11/30 13:37:23;;;;;;;3.90;2.40;;;;;;;;;;10308315;28;20038;-59
2023/11/30 13:42:24;;;;;;;8.48;2.78;;;;;;;;;;10315158;28;20506;-55
2023/11/30 13:47:25;;;;;;;5.18;2.72;;;;;;;;;;10312656;28;20043;-52
2023/11/30 13:52:26;;;;;;;4.65;2.60;;;;;;;;;;10317453;28;20204;-52
2023/11/30 13:57:27;;;;;;;2.63;2.22;;;;;;;;;;10313442;28;20062;-53
2023/11/30 14:02:28;;;;;;;4.88;2.70;;;;;;;;;;10319200;28;20110;-57
2023/11/30 14:07:29;;;;;;;3.67;2.40;;;;;;;;;;10308970;28;20037;-52
2023/11/30 14:12:30;;;;;;;5.53;2.50;;;;;;;;;;10304159;28;20034;-54
2023/11/30 14:17:33;;;;;;;4.70;2.78;;;;;;;;;;10306588;28;20054;-56
2023/11/30 14:22:34;;;;;;;3.13;2.47;;;;;;;;;;10306882;28;20034;-55
2023/11/30 14:27:35;;;;;;;2.60;2.15;;;;;;;;;;10311252;28;20478;-55
2023/11/30 14:32:38;;;;;;;4.97;2.70;;;;;;;;;;10307888;28;20093;-54
2023/11/30 14:37:39;;;;;;;158.63;12.50;;;;;;;;;;10304381;28;20065;-62
2023/11/30 14:42:40;;;;;;;56.80;5.15;;;;;;;;;;10298424;28;20086;-55
2023/11/30 14:47:43;;;;;;;27.25;3.55;;;;;;;;;;10308326;28;20525;-52
2023/11/30 14:52:44;;;;;;;34.80;3.97;;;;;;;;;;10305635;28;20093;-59
2023/11/30 14:57:45;;;;;;;34.80;3.47;;;;;;;;;;10324202;28;20081;-52
2023/11/30 15:02:45;;;;;;;25.13;3.15;;;;;;;;;;10316868;28;20027;-55
2023/11/30 15:07:46;;;;;;;21.13;3.83;;;;;;;;;;10316991;28;20033;-57
2023/11/30 15:12:46;;;;;;;22.92;3.92;;;;;;;;;;10322063;28;20034;-57
2023/11/30 15:17:48;;;;;;;21.25;3.17;;;;;;;;;;10308814;28;20048;-56
2023/11/30 15:22:49;;;;;;;14.75;2.67;;;;;;;;;;10305645;28;20166;-59
2023/11/30 15:27:49;;;;;;;12.80;3.58;;;;;;;;;;10316197;28;20525;-61
2023/11/30 15:32:50;;;;;;;14.27;3.00;;;;;;;;;;10314320;28;20022;-57
2023/11/30 15:37:51;;;;;;;8.20;3.13;;;;;;;;;;10319892;28;20033;-59
2023/11/30 15:42:52;;;;;;;11.68;3.15;;;;;;;;;;10324816;28;20505;-60
2023/11/30 15:47:53;;;;;;;8.18;2.72;;;;;;;;;;10324428;28;20516;-58
2023/11/30 15:52:53;;;;;;;8.65;2.60;;;;;;;;;;10318976;28;20045;-58
2023/11/30 15:57:54;;;;;;;7.53;2.70;;;;;;;;;;10317147;28;20061;-54
2023/11/30 16:02:54;;;;;;;7.80;2.90;;;;;;;;;;10327367;28;20442;-56
2023/11/30 16:07:55;;;;;;;16.08;2.75;;;;;;;;;;10317528;28;20093;-57
2023/11/30 16:12:55;;;;;;;9.45;2.83;;;;;;;;;;10316768;28;20022;-61
2023/11/30 16:17:57;;;;;;;8.55;2.72;;;;;;;;;;10317372;28;20053;-54
2023/11/30 16:23:01;;;;;;;4.72;2.80;;;;;;;;;;10318853;28;20097;-55
2023/11/30 16:28:22;;;;;;;12.80;2.78;;;;;;;;;;10316610;28;20292;-58
2023/11/30 16:33:23;;;;;;;4.80;2.47;;;;;;;;;;10325310;28;20042;-56
2023/11/30 16:38:23;;;;;;;3.85;2.35;;;;;;;;;;10318051;28;20232;-56
2023/11/30 16:43:25;;;;;;;9.57;3.05;;;;;;;;;;10317548;28;20034;-54
2023/11/30 16:48:26;;;;;;;3.20;2.40;;;;;;;;;;10318892;28;20030;-62
2023/11/30 16:53:27;;;;;;;10.60;2.60;;;;;;;;;;10320170;28;20193;-55
2023/11/30 16:58:29;;;;;;;6.57;2.72;;;;;;;;;;10317997;28;20050;-54
2023/11/30 17:03:29;;;;;;;4.18;2.78;;;;;;;;;;10312649;28;20104;-60
2023/11/30 17:08:30;;;;;;;5.22;2.58;;;;;;;;;;10317303;28;20576;-56
2023/11/30 17:13:32;;;;;;;6.43;2.28;;;;;;;;;;10320971;28;20030;-59
2023/11/30 17:18:33;;;;;;;6.47;2.90;;;;;;;;;;10315586;28;20436;-58
2023/11/30 17:23:34;;;;;;;4.07;2.28;;;;;;;;;;10313490;28;20039;-55
2023/11/30 17:28:35;;;;;;;5.45;2.50;;;;;;;;;;10312896;28;20556;-56
2023/11/30 17:33:35;;;;;;;4.82;2.42;;;;;;;;;;10337339;28;20029;-56
2023/11/30 17:38:36;;;;;;;2.85;2.20;;;;;;;;;;10316238;28;20037;-55
2023/11/30 17:43:36;;;;;;;8.02;2.60;;;;;;;;;;10310041;28;20037;-55
2023/11/30 17:48:37;;;;;;;3.70;2.30;;;;;;;;;;10325625;28;20037;-57
2023/11/30 17:53:38;;;;;;;3.85;2.35;;;;;;;;;;10315574;28;20258;-58
2023/11/30 17:58:39;;;;;;;6.85;2.85;;;;;;;;;;10312261;28;20055;-62
2023/11/30 18:03:40;;;;;;;2.38;2.00;;;;;;;;;;10314463;28;20409;-60
2023/11/30 18:08:40;;;;;;;5.72;2.30;;;;;;;;;;10313121;28;20559;-57
2023/11/30 18:13:41;;;;;;;3.60;2.25;;;;;;;;;;10314049;28;20482;-56
2023/11/30 18:18:42;;;;;;;3.08;2.17;;;;;;;;;;10315570;28;20286;-57
2023/11/30 18:23:42;;;;;;;2.58;2.38;;;;;;;;;;10312193;28;20026;-60
2023/11/30 18:28:43;;;;;;;4.25;2.08;;;;;;;;;;10309355;28;20405;-60
2023/11/30 18:33:44;;;;;;;2.33;1.95;;;;;;;;;;10309934;28;20076;-62
2023/11/30 18:38:44;;;;;;;3.05;1.98;;;;;;;;;;10308907;28;20022;-59
2023/11/30 18:43:45;;;;;;;5.55;2.30;;;;;;;;;;10311843;28;20030;-56
2023/11/30 18:48:45;;;;;;;3.17;2.22;;;;;;;;;;10308449;28;20399;-62
2023/11/30 18:53:46;;;;;;;3.33;2.60;;;;;;;;;;10309347;28;20464;-55
2023/11/30 18:58:47;;;;;;;3.13;2.28;;;;;;;;;;10311216;28;20053;-55
2023/11/30 19:03:48;;;;;;;3.50;2.45;;;;;;;;;;10319340;28;20066;-56
2023/11/30 19:08:48;;;;;;;25.40;4.07;;;;;;;;;;10308745;28;20105;-56
2023/11/30 19:13:49;;;;;;;12.55;4.13;;;;;;;;;;10311483;28;20019;-57
2023/11/30 19:18:50;;;;;;;10.98;3.22;;;;;;;;;;10312768;28;20088;-58
2023/11/30 19:23:50;;;;;;;8.13;3.58;;;;;;;;;;10313603;28;20026;-61
2023/11/30 19:28:51;;;;;;;5.65;3.20;;;;;;;;;;10320460;28;20026;-57
2023/11/30 19:33:51;;;;;;;9.88;3.60;;;;;;;;;;10317182;28;20031;-56
2023/11/30 19:38:52;;;;;;;7.03;3.22;;;;;;;;;;10321875;28;20441;-55
2023/11/30 19:43:53;;;;;;;16.83;3.67;;;;;;;;;;10316878;28;20041;-56
2023/11/30 19:48:54;;;;;;;7.97;3.25;;;;;;;;;;10322331;28;20030;-54
2023/11/30 19:53:55;;;;;;;5.50;3.10;;;;;;;;;;10319799;28;20433;-55
2023/11/30 19:58:55;;;;;;;12.18;3.83;;;;;;;;;;10318380;28;20038;-54
2023/11/30 20:03:56;;;;;;;8.48;3.58;;;;;;;;;;10289890;28;20394;-54
2023/11/30 20:08:56;;;;;;;8.80;3.03;;;;;;;;;;10317741;28;20038;-56
2023/11/30 20:13:57;;;;;;;5.80;3.33;;;;;;;;;;10311055;28;20034;-56
2023/11/30 20:18:58;;;;;;;15.70;3.00;;;;;;;;;;10327051;28;20026;-54
2023/11/30 20:23:58;;;;;;;7.85;3.40;;;;;;;;;;10326818;28;20287;-54
2023/11/30 20:28:59;;;;;;;13.48;4.20;;;;;;;;;;10327317;28;20037;-54
2023/11/30 20:34:01;;;;;;;15.27;4.30;;;;;;;;;;10320128;28;20030;-56
2023/11/30 20:39:01;;;;;;;13.90;3.80;;;;;;;;;;10314566;28;20471;-56
2023/11/30 20:44:04;;;;;;;8.55;3.58;;;;;;;;;;10327458;28;20041;-57
2023/11/30 20:49:04;;;;;;;14.18;3.65;;;;;;;;;;10319210;28;20044;-53
2023/11/30 20:54:06;;;;;;;7.43;3.28;;;;;;;;;;10323295;28;20379;-54
2023/11/30 20:59:07;;;;;;;7.97;3.70;;;;;;;;;;10311505;28;20038;-54
2023/11/30 21:04:07;;;;;;;21.92;3.92;;;;;;;;;;10314013;28;20053;-57
2023/11/30 21:09:08;;;;;;;11.23;3.53;;;;;;;;;;10312762;28;20069;-55
2023/11/30 21:14:10;;;;;;;7.07;3.08;;;;;;;;;;10317009;28;20069;-54
2023/11/30 21:19:11;;;;;;;10.23;3.30;;;;;;;;;;10319795;28;20034;-53
2023/11/30 21:24:11;;;;;;;6.22;3.03;;;;;;;;;;10323666;28;20045;-57
2023/11/30 21:29:12;;;;;;;11.57;3.65;;;;;;;;;;10319947;28;20018;-55
2023/11/30 21:34:13;;;;;;;8.30;3.38;;;;;;;;;;10314170;28;20135;-54
2023/11/30 21:39:13;;;;;;;9.40;3.35;;;;;;;;;;10315064;28;20050;-55
2023/11/30 21:44:14;;;;;;;4.75;3.13;;;;;;;;;;10316463;28;20038;-54
2023/11/30 21:49:18;;;;;;;5.65;2.67;;;;;;;;;;10309241;28;20026;-59
2023/11/30 21:54:19;;;;;;;4.82;2.97;;;;;;;;;;10316281;28;20446;-54
2023/11/30 21:59:20;;;;;;;8.68;2.60;;;;;;;;;;10315543;28;20030;-53
2023/11/30 22:04:20;;;;;;;5.35;3.25;;;;;;;;;;10320376;28;20037;-56
2023/11/30 22:09:21;;;;;;;5.90;3.08;;;;;;;;;;10307761;28;20026;-54
2023/11/30 22:14:22;;;;;;;4.53;3.00;;;;;;;;;;10312041;28;20031;-54
2023/11/30 22:19:22;;;;;;;8.50;3.33;;;;;;;;;;10322027;28;20030;-54
2023/11/30 22:24:23;;;;;;;6.28;3.15;;;;;;;;;;10311508;28;20068;-54
2023/11/30 22:29:24;;;;;;;8.05;3.00;;;;;;;;;;10316857;28;20041;-54
2023/11/30 22:34:25;;;;;;;5.65;3.05;;;;;;;;;;10321807;28;20023;-56
2023/11/30 22:39:26;;;;;;;4.15;3.20;;;;;;;;;;10314261;28;20019;-54
2023/11/30 22:44:26;;;;;;;7.55;3.85;;;;;;;;;;10313145;28;20026;-56
2023/11/30 22:49:27;;;;;;;7.40;3.58;;;;;;;;;;10312057;28;20050;-54
2023/11/30 22:54:27;;;;;;;5.15;3.42;;;;;;;;;;10312576;28;20047;-54
2023/11/30 22:59:30;;;;;;;7.78;4.03;;;;;;;;;;10312837;28;21156;-55
2023/11/30 23:04:31;;;;;;;6.85;3.47;;;;;;;;;;10313572;28;20029;-58
2023/11/30 23:09:31;;;;;;;3.60;3.22;;;;;;;;;;10311057;28;20026;-57
2023/11/30 23:14:32;;;;;;;4.95;3.40;;;;;;;;;;10313960;28;20038;-57
2023/11/30 23:19:33;;;;;;;6.88;3.83;;;;;;;;;;10321243;28;20035;-56
2023/11/30 23:24:33;;;;;;;4.10;3.50;;;;;;;;;;10317207;28;20057;-56
2023/11/30 23:29:36;;;;;;;4.85;2.85;;;;;;;;;;10298851;28;20045;-56
2023/11/30 23:34:37;;;;;;;5.10;3.53;;;;;;;;;;10305731;28;20070;-56
2023/11/30 23:39:37;;;;;;;5.00;3.30;;;;;;;;;;10297437;28;20023;-57
2023/11/30 23:44:38;;;;;;;4.88;3.47;;;;;;;;;;10305495;28;20538;-56
2023/11/30 23:49:39;;;;;;;6.05;3.05;;;;;;;;;;10307332;28;20030;-56
2023/11/30 23:54:39;;;;;;;4.13;3.30;;;;;;;;;;10297631;28;20100;-56
2023/11/30 23:59:40;;;;;;;4.78;3.10;;;;;;;;;;10306196;28;20031;-57
